Terminal Aerodrome Forecast
Issued by NWS

Home | Current Version | Previous Version | Text Only | Print | Product List | Glossary On
Versions: 1 2 3 4 5 6 7 8 9 10 11 12 13
000
FTUS44 KLIX 231733
TAFMCB
TAF
KMCB 231733Z 2318/2418 00000KT P6SM BKN035
     FM232000 00000KT P6SM VCTS BKN040CB
     FM240000 00000KT P6SM SCT050
     FM241600 07004KT P6SM SCT025 BKN120 PROB30 2416/2418 4SM TSRA
      OVC025CB=

USA.gov is the U.S. government's official web portal to all federal, state and local government web resources and services.